sensor_id;sensor_type;location;lat;lon;timestamp;pressure;altitude;pressure_sealevel;temperature;humidity
38400;BME280;24180;42.676;23.320;2023-04-28T00:00:48;95002.06;;;6.28;100.00
38400;BME280;24180;42.676;23.320;2023-04-28T00:03:14;94999.22;;;6.20;100.00
38400;BME280;24180;42.676;23.320;2023-04-28T00:05:39;95006.66;;;6.11;100.00
38400;BME280;24180;42.676;23.320;2023-04-28T00:08:05;94997.56;;;6.19;100.00
38400;BME280;24180;42.676;23.320;2023-04-28T00:10:30;95008.69;;;6.19;100.00
38400;BME280;24180;42.676;23.320;2023-04-28T00:12:56;95002.34;;;6.12;100.00
38400;BME280;24180;42.676;23.320;2023-04-28T00:15:21;95009.91;;;6.02;100.00
38400;BME280;24180;42.676;23.320;2023-04-28T00:17:47;95017.75;;;6.01;100.00
38400;BME280;24180;42.676;23.320;2023-04-28T00:20:12;94968.06;;;5.77;100.00
38400;BME280;24180;42.676;23.320;2023-04-28T00:22:38;94986.25;;;5.74;100.00
38400;BME280;24180;42.676;23.320;2023-04-28T00:25:04;94998.66;;;5.80;100.00
38400;BME280;24180;42.676;23.320;2023-04-28T00:27:31;94996.53;;;5.74;100.00
38400;BME280;24180;42.676;23.320;2023-04-28T00:29:57;94993.03;;;5.75;100.00
38400;BME280;24180;42.676;23.320;2023-04-28T00:32:22;95001.97;;;5.82;100.00
38400;BME280;24180;42.676;23.320;2023-04-28T00:34:48;95020.81;;;5.70;100.00
38400;BME280;24180;42.676;23.320;2023-04-28T00:37:13;94981.44;;;5.45;100.00
38400;BME280;24180;42.676;23.320;2023-04-28T00:39:38;94979.78;;;5.44;100.00
38400;BME280;24180;42.676;23.320;2023-04-28T00:42:06;94951.28;;;5.24;100.00
38400;BME280;24180;42.676;23.320;2023-04-28T00:44:31;95015.22;;;5.76;100.00
38400;BME280;24180;42.676;23.320;2023-04-28T00:46:57;95018.13;;;5.71;100.00
38400;BME280;24180;42.676;23.320;2023-04-28T00:49:24;94998.56;;;5.57;100.00
38400;BME280;24180;42.676;23.320;2023-04-28T00:51:49;94994.03;;;5.48;100.00
38400;BME280;24180;42.676;23.320;2023-04-28T00:54:15;95014.66;;;5.59;100.00
38400;BME280;24180;42.676;23.320;2023-04-28T00:56:42;94992.13;;;5.39;100.00
38400;BME280;24180;42.676;23.320;2023-04-28T00:59:07;95019.19;;;5.56;100.00
38400;BME280;24180;42.676;23.320;2023-04-28T01:01:34;95033.09;;;5.53;100.00
38400;BME280;24180;42.676;23.320;2023-04-28T01:04:00;94992.97;;;5.27;100.00
38400;BME280;24180;42.676;23.320;2023-04-28T01:06:26;95027.84;;;5.42;100.00
38400;BME280;24180;42.676;23.320;2023-04-28T01:08:52;95031.44;;;5.40;100.00
38400;BME280;24180;42.676;23.320;2023-04-28T01:11:18;95028.97;;;5.38;100.00
38400;BME280;24180;42.676;23.320;2023-04-28T01:13:44;94996.88;;;5.20;100.00
38400;BME280;24180;42.676;23.320;2023-04-28T01:16:09;94989.50;;;5.15;100.00
38400;BME280;24180;42.676;23.320;2023-04-28T01:18:35;95027.06;;;5.29;100.00
38400;BME280;24180;42.676;23.320;2023-04-28T01:21:01;95001.19;;;5.07;100.00
38400;BME280;24180;42.676;23.320;2023-04-28T01:23:28;95015.78;;;5.19;100.00
38400;BME280;24180;42.676;23.320;2023-04-28T01:25:54;95023.56;;;5.30;100.00
38400;BME280;24180;42.676;23.320;2023-04-28T01:28:19;95003.47;;;5.11;100.00
38400;BME280;24180;42.676;23.320;2023-04-28T01:30:45;95029.63;;;5.29;100.00
38400;BME280;24180;42.676;23.320;2023-04-28T01:33:10;95027.91;;;5.17;100.00
38400;BME280;24180;42.676;23.320;2023-04-28T01:35:35;95002.34;;;5.03;100.00
38400;BME280;24180;42.676;23.320;2023-04-28T01:38:01;95017.63;;;5.17;100.00
38400;BME280;24180;42.676;23.320;2023-04-28T01:40:26;95042.97;;;5.22;100.00
38400;BME280;24180;42.676;23.320;2023-04-28T01:42:52;95035.00;;;5.01;100.00
38400;BME280;24180;42.676;23.320;2023-04-28T01:45:17;95003.69;;;4.96;100.00
38400;BME280;24180;42.676;23.320;2023-04-28T01:47:43;95022.78;;;5.17;100.00
38400;BME280;24180;42.676;23.320;2023-04-28T01:50:08;95003.25;;;5.02;100.00
38400;BME280;24180;42.676;23.320;2023-04-28T01:52:34;95000.69;;;5.02;100.00
38400;BME280;24180;42.676;23.320;2023-04-28T01:54:59;94998.03;;;4.91;100.00
38400;BME280;24180;42.676;23.320;2023-04-28T01:57:25;95023.78;;;5.02;100.00
38400;BME280;24180;42.676;23.320;2023-04-28T01:59:52;95027.59;;;5.09;100.00
38400;BME280;24180;42.676;23.320;2023-04-28T02:02:18;95012.00;;;4.99;100.00
38400;BME280;24180;42.676;23.320;2023-04-28T02:04:43;95030.03;;;5.10;100.00
38400;BME280;24180;42.676;23.320;2023-04-28T02:07:08;95045.56;;;5.09;100.00
38400;BME280;24180;42.676;23.320;2023-04-28T02:09:34;95034.78;;;5.04;100.00
38400;BME280;24180;42.676;23.320;2023-04-28T02:11:59;95037.97;;;5.07;100.00
38400;BME280;24180;42.676;23.320;2023-04-28T02:14:26;95015.47;;;4.86;100.00
38400;BME280;24180;42.676;23.320;2023-04-28T02:16:52;95046.47;;;4.95;100.00
38400;BME280;24180;42.676;23.320;2023-04-28T02:19:17;95016.41;;;4.72;100.00
38400;BME280;24180;42.676;23.320;2023-04-28T02:21:42;95047.41;;;4.94;100.00
38400;BME280;24180;42.676;23.320;2023-04-28T02:24:08;95026.16;;;4.80;100.00
38400;BME280;24180;42.676;23.320;2023-04-28T02:26:34;95042.47;;;4.91;100.00
38400;BME280;24180;42.676;23.320;2023-04-28T02:28:59;95049.88;;;4.96;100.00
38400;BME280;24180;42.676;23.320;2023-04-28T02:31:25;95040.94;;;4.89;100.00
38400;BME280;24180;42.676;23.320;2023-04-28T02:33:51;95045.78;;;4.81;100.00
38400;BME280;24180;42.676;23.320;2023-04-28T02:36:17;94999.78;;;4.65;100.00
38400;BME280;24180;42.676;23.320;2023-04-28T02:38:42;95032.72;;;4.84;100.00
38400;BME280;24180;42.676;23.320;2023-04-28T02:41:08;95024.00;;;4.73;100.00
38400;BME280;24180;42.676;23.320;2023-04-28T02:43:34;95026.69;;;4.72;100.00
38400;BME280;24180;42.676;23.320;2023-04-28T02:46:03;95053.88;;;4.87;100.00
38400;BME280;24180;42.676;23.320;2023-04-28T02:48:29;95030.47;;;4.79;100.00
38400;BME280;24180;42.676;23.320;2023-04-28T02:50:55;95031.91;;;4.70;100.00
38400;BME280;24180;42.676;23.320;2023-04-28T02:53:21;95048.03;;;4.85;100.00
38400;BME280;24180;42.676;23.320;2023-04-28T02:55:47;95031.19;;;4.68;100.00
38400;BME280;24180;42.676;23.320;2023-04-28T02:58:12;95039.59;;;4.70;100.00
38400;BME280;24180;42.676;23.320;2023-04-28T03:00:38;95061.78;;;4.84;100.00
38400;BME280;24180;42.676;23.320;2023-04-28T03:03:03;95067.22;;;4.80;100.00
38400;BME280;24180;42.676;23.320;2023-04-28T03:05:29;95042.88;;;4.72;100.00
38400;BME280;24180;42.676;23.320;2023-04-28T03:07:54;95052.09;;;4.62;100.00
38400;BME280;24180;42.676;23.320;2023-04-28T03:10:19;95070.78;;;4.90;100.00
38400;BME280;24180;42.676;23.320;2023-04-28T03:12:45;95059.22;;;4.84;100.00
38400;BME280;24180;42.676;23.320;2023-04-28T03:15:10;95074.91;;;4.92;100.00
38400;BME280;24180;42.676;23.320;2023-04-28T03:17:36;95040.94;;;4.76;100.00
38400;BME280;24180;42.676;23.320;2023-04-28T03:20:07;95079.75;;;4.97;100.00
38400;BME280;24180;42.676;23.320;2023-04-28T03:22:34;95051.50;;;4.71;100.00
38400;BME280;24180;42.676;23.320;2023-04-28T03:25:00;95075.84;;;4.91;100.00
38400;BME280;24180;42.676;23.320;2023-04-28T03:27:26;95085.19;;;4.92;100.00
38400;BME280;24180;42.676;23.320;2023-04-28T03:29:51;95089.28;;;4.95;100.00
38400;BME280;24180;42.676;23.320;2023-04-28T03:32:17;95092.16;;;4.90;100.00
38400;BME280;24180;42.676;23.320;2023-04-28T03:34:42;95101.69;;;4.88;100.00
38400;BME280;24180;42.676;23.320;2023-04-28T03:37:08;95047.78;;;4.63;100.00
38400;BME280;24180;42.676;23.320;2023-04-28T03:39:33;95107.25;;;4.95;100.00
38400;BME280;24180;42.676;23.320;2023-04-28T03:41:59;95096.66;;;4.87;100.00
38400;BME280;24180;42.676;23.320;2023-04-28T03:44:25;95086.09;;;4.79;100.00
38400;BME280;24180;42.676;23.320;2023-04-28T03:46:50;95092.78;;;4.81;100.00
38400;BME280;24180;42.676;23.320;2023-04-28T03:49:16;95115.69;;;4.97;100.00
38400;BME280;24180;42.676;23.320;2023-04-28T03:51:41;95096.66;;;4.87;100.00
38400;BME280;24180;42.676;23.320;2023-04-28T03:54:07;95118.63;;;4.91;100.00
38400;BME280;24180;42.676;23.320;2023-04-28T03:56:33;95119.88;;;4.98;100.00
38400;BME280;24180;42.676;23.320;2023-04-28T03:58:58;95123.75;;;4.91;100.00
38400;BME280;24180;42.676;23.320;2023-04-28T04:01:23;95134.66;;;5.07;100.00
38400;BME280;24180;42.676;23.320;2023-04-28T04:03:49;95114.41;;;4.90;100.00
38400;BME280;24180;42.676;23.320;2023-04-28T04:06:15;95136.00;;;5.00;100.00
38400;BME280;24180;42.676;23.320;2023-04-28T04:08:41;95113.19;;;4.83;100.00
38400;BME280;24180;42.676;23.320;2023-04-28T04:11:06;95133.97;;;5.05;100.00
38400;BME280;24180;42.676;23.320;2023-04-28T04:13:32;95104.34;;;4.87;100.00
38400;BME280;24180;42.676;23.320;2023-04-28T04:15:57;95117.22;;;4.99;100.00
38400;BME280;24180;42.676;23.320;2023-04-28T04:18:23;95118.75;;;4.89;100.00
38400;BME280;24180;42.676;23.320;2023-04-28T04:20:48;95124.28;;;4.96;100.00
38400;BME280;24180;42.676;23.320;2023-04-28T04:23:14;95148.44;;;5.18;100.00
38400;BME280;24180;42.676;23.320;2023-04-28T04:25:40;95147.09;;;5.13;100.00
38400;BME280;24180;42.676;23.320;2023-04-28T04:28:06;95155.63;;;5.13;100.00
38400;BME280;24180;42.676;23.320;2023-04-28T04:30:31;95166.94;;;5.24;100.00
38400;BME280;24180;42.676;23.320;2023-04-28T04:32:57;95171.84;;;5.14;100.00
38400;BME280;24180;42.676;23.320;2023-04-28T04:35:22;95128.69;;;4.94;100.00
38400;BME280;24180;42.676;23.320;2023-04-28T04:37:48;95134.34;;;4.99;100.00
38400;BME280;24180;42.676;23.320;2023-04-28T04:40:13;95159.94;;;5.13;100.00
38400;BME280;24180;42.676;23.320;2023-04-28T04:42:39;95170.00;;;5.16;100.00
38400;BME280;24180;42.676;23.320;2023-04-28T04:45:05;95145.25;;;5.15;100.00
38400;BME280;24180;42.676;23.320;2023-04-28T04:47:30;95141.56;;;5.19;100.00
38400;BME280;24180;42.676;23.320;2023-04-28T04:49:56;95165.06;;;5.26;100.00
38400;BME280;24180;42.676;23.320;2023-04-28T04:52:21;95166.72;;;5.27;100.00
38400;BME280;24180;42.676;23.320;2023-04-28T04:54:46;95182.34;;;5.36;100.00
38400;BME280;24180;42.676;23.320;2023-04-28T04:57:12;95183.88;;;5.26;100.00
38400;BME280;24180;42.676;23.320;2023-04-28T04:59:38;95173.09;;;5.21;100.00
38400;BME280;24180;42.676;23.320;2023-04-28T05:02:03;95148.63;;;5.03;100.00
38400;BME280;24180;42.676;23.320;2023-04-28T05:04:28;95191.88;;;5.34;100.00
38400;BME280;24180;42.676;23.320;2023-04-28T05:06:54;95200.84;;;5.41;100.00
38400;BME280;24180;42.676;23.320;2023-04-28T05:09:19;95204.13;;;5.43;100.00
38400;BME280;24180;42.676;23.320;2023-04-28T05:11:45;95187.69;;;5.46;100.00
38400;BME280;24180;42.676;23.320;2023-04-28T05:14:10;95185.53;;;5.52;100.00
38400;BME280;24180;42.676;23.320;2023-04-28T05:16:37;95170.75;;;5.43;100.00
38400;BME280;24180;42.676;23.320;2023-04-28T05:19:03;95195.91;;;5.63;100.00
38400;BME280;24180;42.676;23.320;2023-04-28T05:21:29;95187.06;;;5.68;100.00
38400;BME280;24180;42.676;23.320;2023-04-28T05:23:55;95182.53;;;5.71;99.50
38400;BME280;24180;42.676;23.320;2023-04-28T05:26:21;95176.28;;;5.62;99.21
38400;BME280;24180;42.676;23.320;2023-04-28T05:28:47;95189.34;;;5.85;100.00
38400;BME280;24180;42.676;23.320;2023-04-28T05:31:12;95196.34;;;5.95;100.00
38400;BME280;24180;42.676;23.320;2023-04-28T05:33:38;95165.69;;;5.80;99.74
38400;BME280;24180;42.676;23.320;2023-04-28T05:36:03;95161.16;;;5.83;100.00
38400;BME280;24180;42.676;23.320;2023-04-28T05:38:29;95193.84;;;5.94;99.92
38400;BME280;24180;42.676;23.320;2023-04-28T05:40:56;95181.50;;;5.99;100.00
38400;BME280;24180;42.676;23.320;2023-04-28T05:43:21;95159.53;;;5.95;100.00
38400;BME280;24180;42.676;23.320;2023-04-28T05:45:46;95188.56;;;6.21;99.90
38400;BME280;24180;42.676;23.320;2023-04-28T05:48:12;95191.38;;;6.18;98.94
38400;BME280;24180;42.676;23.320;2023-04-28T05:50:37;95170.16;;;6.14;98.71
38400;BME280;24180;42.676;23.320;2023-04-28T05:53:03;95168.72;;;6.23;96.75
38400;BME280;24180;42.676;23.320;2023-04-28T05:55:29;95187.19;;;6.40;96.99
38400;BME280;24180;42.676;23.320;2023-04-28T05:57:54;95195.28;;;6.47;95.18
38400;BME280;24180;42.676;23.320;2023-04-28T06:00:20;95202.69;;;6.51;92.72
38400;BME280;24180;42.676;23.320;2023-04-28T06:02:46;95148.75;;;6.26;94.07
38400;BME280;24180;42.676;23.320;2023-04-28T06:05:11;95194.69;;;6.67;91.89
38400;BME280;24180;42.676;23.320;2023-04-28T06:07:37;95180.31;;;6.65;90.71
38400;BME280;24180;42.676;23.320;2023-04-28T06:10:02;95203.50;;;6.76;90.44
38400;BME280;24180;42.676;23.320;2023-04-28T06:12:28;95180.72;;;6.58;90.68
38400;BME280;24180;42.676;23.320;2023-04-28T06:14:53;95172.47;;;6.66;91.71
38400;BME280;24180;42.676;23.320;2023-04-28T06:17:19;95199.91;;;7.02;91.45
38400;BME280;24180;42.676;23.320;2023-04-28T06:19:45;95172.38;;;7.02;88.57
38400;BME280;24180;42.676;23.320;2023-04-28T06:22:11;95191.97;;;7.16;84.81
38400;BME280;24180;42.676;23.320;2023-04-28T06:24:37;95201.88;;;7.33;86.48
38400;BME280;24180;42.676;23.320;2023-04-28T06:27:02;95194.00;;;7.24;84.53
38400;BME280;24180;42.676;23.320;2023-04-28T06:29:28;95196.56;;;7.24;84.35
38400;BME280;24180;42.676;23.320;2023-04-28T06:31:53;95173.72;;;7.19;85.49
38400;BME280;24180;42.676;23.320;2023-04-28T06:34:24;95171.31;;;7.40;85.75
38400;BME280;24180;42.676;23.320;2023-04-28T06:36:51;95203.81;;;7.76;84.24
38400;BME280;24180;42.676;23.320;2023-04-28T06:39:17;95191.16;;;7.73;82.84
38400;BME280;24180;42.676;23.320;2023-04-28T06:41:42;95184.59;;;7.80;80.43
38400;BME280;24180;42.676;23.320;2023-04-28T06:44:07;95182.03;;;7.80;78.50
38400;BME280;24180;42.676;23.320;2023-04-28T06:46:33;95157.19;;;7.68;78.60
38400;BME280;24180;42.676;23.320;2023-04-28T06:48:58;95179.44;;;7.80;77.47
38400;BME280;24180;42.676;23.320;2023-04-28T06:51:24;95192.81;;;7.96;74.66
38400;BME280;24180;42.676;23.320;2023-04-28T06:53:49;95183.66;;;8.03;76.25
38400;BME280;24180;42.676;23.320;2023-04-28T06:56:17;95184.84;;;8.10;76.38
38400;BME280;24180;42.676;23.320;2023-04-28T06:58:42;95184.97;;;8.09;70.33
38400;BME280;24180;42.676;23.320;2023-04-28T07:01:08;95189.06;;;8.11;73.68
38400;BME280;24180;42.676;23.320;2023-04-28T07:03:33;95162.81;;;8.06;73.03
38400;BME280;24180;42.676;23.320;2023-04-28T07:05:59;95162.34;;;8.34;72.57
38400;BME280;24180;42.676;23.320;2023-04-28T07:08:24;95161.72;;;8.53;71.00
38400;BME280;24180;42.676;23.320;2023-04-28T07:10:50;95174.75;;;8.95;67.65
38400;BME280;24180;42.676;23.320;2023-04-28T07:13:15;95175.28;;;9.30;65.09
38400;BME280;24180;42.676;23.320;2023-04-28T07:15:41;95154.41;;;9.01;61.09
38400;BME280;24180;42.676;23.320;2023-04-28T07:18:06;95125.53;;;8.64;62.08
38400;BME280;24180;42.676;23.320;2023-04-28T07:20:32;95157.22;;;8.66;63.69
38400;BME280;24180;42.676;23.320;2023-04-28T07:22:57;95171.75;;;8.99;65.05
38400;BME280;24180;42.676;23.320;2023-04-28T07:28:07;95150.25;;;8.78;63.28
38400;BME280;24180;42.676;23.320;2023-04-28T07:30:33;95156.63;;;8.74;64.35
38400;BME280;24180;42.676;23.320;2023-04-28T07:32:59;95150.66;;;8.94;63.26
38400;BME280;24180;42.676;23.320;2023-04-28T07:35:25;95167.75;;;9.27;63.43
38400;BME280;24180;42.676;23.320;2023-04-28T07:37:51;95175.47;;;9.38;62.66
38400;BME280;24180;42.676;23.320;2023-04-28T07:40:17;95181.47;;;9.38;61.37
38400;BME280;24180;42.676;23.320;2023-04-28T07:42:43;95175.66;;;9.25;61.88
38400;BME280;24180;42.676;23.320;2023-04-28T07:45:09;95106.13;;;8.81;62.50
38400;BME280;24180;42.676;23.320;2023-04-28T07:47:35;95146.47;;;9.34;62.17
38400;BME280;24180;42.676;23.320;2023-04-28T07:50:01;95156.19;;;9.42;60.64
38400;BME280;24180;42.676;23.320;2023-04-28T07:52:29;95160.91;;;9.58;59.62
38400;BME280;24180;42.676;23.320;2023-04-28T07:54:55;95162.28;;;9.62;60.12
38400;BME280;24180;42.676;23.320;2023-04-28T07:57:21;95146.66;;;9.43;59.74
38400;BME280;24180;42.676;23.320;2023-04-28T07:59:46;95139.78;;;9.53;59.28
38400;BME280;24180;42.676;23.320;2023-04-28T08:02:11;95167.56;;;9.81;59.36
38400;BME280;24180;42.676;23.320;2023-04-28T08:04:38;95142.53;;;9.91;58.24
38400;BME280;24180;42.676;23.320;2023-04-28T08:07:04;95170.59;;;10.16;57.38
38400;BME280;24180;42.676;23.320;2023-04-28T08:09:29;95164.78;;;10.33;55.95
38400;BME280;24180;42.676;23.320;2023-04-28T08:11:55;95166.63;;;10.62;54.09
38400;BME280;24180;42.676;23.320;2023-04-28T08:14:20;95152.75;;;10.63;53.16
38400;BME280;24180;42.676;23.320;2023-04-28T08:16:46;95181.09;;;10.74;51.94
38400;BME280;24180;42.676;23.320;2023-04-28T08:19:12;95174.38;;;10.52;51.65
38400;BME280;24180;42.676;23.320;2023-04-28T08:21:38;95144.50;;;10.39;51.36
38400;BME280;24180;42.676;23.320;2023-04-28T08:24:03;95144.41;;;10.59;51.34
38400;BME280;24180;42.676;23.320;2023-04-28T08:26:29;95167.47;;;10.82;50.59
38400;BME280;24180;42.676;23.320;2023-04-28T08:28:55;95142.25;;;10.84;51.39
38400;BME280;24180;42.676;23.320;2023-04-28T08:31:20;95153.16;;;10.97;50.39
38400;BME280;24180;42.676;23.320;2023-04-28T08:33:46;95151.53;;;10.96;51.24
38400;BME280;24180;42.676;23.320;2023-04-28T08:36:15;95162.72;;;10.96;50.32
38400;BME280;24180;42.676;23.320;2023-04-28T08:38:42;95163.00;;;11.03;50.88
38400;BME280;24180;42.676;23.320;2023-04-28T08:41:08;95135.97;;;10.76;51.17
38400;BME280;24180;42.676;23.320;2023-04-28T08:43:34;95151.97;;;10.91;50.82
38400;BME280;24180;42.676;23.320;2023-04-28T08:46:05;95149.22;;;10.93;50.14
38400;BME280;24180;42.676;23.320;2023-04-28T08:48:38;95147.72;;;11.09;50.25
38400;BME280;24180;42.676;23.320;2023-04-28T08:51:05;95136.38;;;11.20;50.17
38400;BME280;24180;42.676;23.320;2023-04-28T08:53:35;95138.69;;;11.33;50.35
38400;BME280;24180;42.676;23.320;2023-04-28T08:56:01;95145.34;;;11.54;49.34
38400;BME280;24180;42.676;23.320;2023-04-28T08:58:29;95121.47;;;11.51;49.08
38400;BME280;24180;42.676;23.320;2023-04-28T09:00:55;95142.72;;;11.83;49.75
38400;BME280;24180;42.676;23.320;2023-04-28T09:03:20;95073.75;;;11.24;49.12
38400;BME280;24180;42.676;23.320;2023-04-28T09:05:46;95114.94;;;11.47;48.73
38400;BME280;24180;42.676;23.320;2023-04-28T09:08:11;95137.81;;;11.61;48.67
38400;BME280;24180;42.676;23.320;2023-04-28T09:10:37;95134.03;;;11.55;48.24
38400;BME280;24180;42.676;23.320;2023-04-28T09:13:03;95126.78;;;11.59;49.24
38400;BME280;24180;42.676;23.320;2023-04-28T09:15:32;95120.06;;;11.66;48.05
38400;BME280;24180;42.676;23.320;2023-04-28T09:17:59;95119.25;;;11.56;48.22
38400;BME280;24180;42.676;23.320;2023-04-28T09:20:27;95108.34;;;11.52;48.07
38400;BME280;24180;42.676;23.320;2023-04-28T09:22:54;95100.31;;;11.55;47.42
38400;BME280;24180;42.676;23.320;2023-04-28T09:25:20;95116.66;;;11.75;47.17
38400;BME280;24180;42.676;23.320;2023-04-28T09:27:47;95107.84;;;11.95;48.50
38400;BME280;24180;42.676;23.320;2023-04-28T09:30:13;95121.88;;;12.02;47.01
38400;BME280;24180;42.676;23.320;2023-04-28T09:32:39;95092.44;;;11.84;47.12
38400;BME280;24180;42.676;23.320;2023-04-28T09:35:05;95111.59;;;11.83;46.69
38400;BME280;24180;42.676;23.320;2023-04-28T09:37:32;95105.69;;;11.91;47.37
38400;BME280;24180;42.676;23.320;2023-04-28T09:40:04;95088.97;;;11.56;47.10
38400;BME280;24180;42.676;23.320;2023-04-28T09:42:39;95101.03;;;11.85;46.10
38400;BME280;24180;42.676;23.320;2023-04-28T09:45:11;95105.78;;;11.99;47.20
38400;BME280;24180;42.676;23.320;2023-04-28T09:47:39;95094.06;;;11.95;45.94
38400;BME280;24180;42.676;23.320;2023-04-28T09:50:07;95095.72;;;12.13;46.15
38400;BME280;24180;42.676;23.320;2023-04-28T09:52:40;95094.69;;;12.24;45.01
38400;BME280;24180;42.676;23.320;2023-04-28T09:55:06;95092.72;;;12.36;44.11
38400;BME280;24180;42.676;23.320;2023-04-28T09:57:35;95056.31;;;12.28;44.36
38400;BME280;24180;42.676;23.320;2023-04-28T10:00:02;95056.38;;;12.36;44.42
38400;BME280;24180;42.676;23.320;2023-04-28T10:02:30;95057.94;;;12.64;43.38
38400;BME280;24180;42.676;23.320;2023-04-28T10:04:56;95056.06;;;13.09;43.00
38400;BME280;24180;42.676;23.320;2023-04-28T10:07:22;95070.94;;;14.02;41.40
38400;BME280;24180;42.676;23.320;2023-04-28T10:09:49;95063.97;;;16.13;38.24
38400;BME280;24180;42.676;23.320;2023-04-28T10:12:19;95039.00;;;18.14;35.18
38400;BME280;24180;42.676;23.320;2023-04-28T10:14:46;95033.53;;;19.44;31.42
38400;BME280;24180;42.676;23.320;2023-04-28T10:17:15;95054.38;;;20.55;29.65
38400;BME280;24180;42.676;23.320;2023-04-28T10:19:41;95052.44;;;19.40;30.27
38400;BME280;24180;42.676;23.320;2023-04-28T10:22:20;95062.81;;;19.69;30.24
38400;BME280;24180;42.676;23.320;2023-04-28T10:27:37;95053.56;;;21.35;27.74
38400;BME280;24180;42.676;23.320;2023-04-28T10:30:14;95041.78;;;21.71;27.41
38400;BME280;24180;42.676;23.320;2023-04-28T10:32:40;95042.88;;;22.85;26.55
38400;BME280;24180;42.676;23.320;2023-04-28T10:38:03;95043.47;;;22.43;26.21
38400;BME280;24180;42.676;23.320;2023-04-28T10:42:56;95009.81;;;24.73;23.75
38400;BME280;24180;42.676;23.320;2023-04-28T10:56:24;95000.59;;;23.91;24.17
38400;BME280;24180;42.676;23.320;2023-04-28T10:58:54;95007.06;;;24.97;24.03
38400;BME280;24180;42.676;23.320;2023-04-28T11:06:40;95008.66;;;23.77;23.10
38400;BME280;24180;42.676;23.320;2023-04-28T11:17:11;94985.00;;;28.00;20.32
38400;BME280;24180;42.676;23.320;2023-04-28T11:19:40;94993.34;;;26.12;20.92
38400;BME280;24180;42.676;23.320;2023-04-28T11:22:16;94992.34;;;26.41;20.91
38400;BME280;24180;42.676;23.320;2023-04-28T11:27:25;94958.25;;;23.29;22.17
38400;BME280;24180;42.676;23.320;2023-04-28T11:29:51;94964.22;;;24.70;22.04
38400;BME280;24180;42.676;23.320;2023-04-28T11:32:28;94966.50;;;26.65;20.35
38400;BME280;24180;42.676;23.320;2023-04-28T11:34:54;94973.75;;;27.76;20.62
38400;BME280;24180;42.676;23.320;2023-04-28T11:37:20;94974.41;;;27.16;19.69
38400;BME280;24180;42.676;23.320;2023-04-28T11:39:45;94955.94;;;28.85;18.77
38400;BME280;24180;42.676;23.320;2023-04-28T11:42:11;94965.41;;;29.61;18.19
38400;BME280;24180;42.676;23.320;2023-04-28T11:44:37;94941.16;;;28.07;19.13
38400;BME280;24180;42.676;23.320;2023-04-28T11:47:03;94964.22;;;26.40;20.00
38400;BME280;24180;42.676;23.320;2023-04-28T11:49:32;94937.50;;;27.20;20.00
38400;BME280;24180;42.676;23.320;2023-04-28T11:52:07;94958.91;;;26.28;20.68
38400;BME280;24180;42.676;23.320;2023-04-28T11:54:32;94947.47;;;27.13;20.40
38400;BME280;24180;42.676;23.320;2023-04-28T11:56:59;94961.75;;;28.55;20.12
38400;BME280;24180;42.676;23.320;2023-04-28T11:59:34;94934.84;;;30.31;18.08
38400;BME280;24180;42.676;23.320;2023-04-28T12:02:04;94938.38;;;28.89;18.76
38400;BME280;24180;42.676;23.320;2023-04-28T12:04:34;94966.34;;;26.54;19.67
38400;BME280;24180;42.676;23.320;2023-04-28T12:07:14;94942.50;;;24.50;21.24
38400;BME280;24180;42.676;23.320;2023-04-28T12:12:07;94951.38;;;23.90;22.40
38400;BME280;24180;42.676;23.320;2023-04-28T12:14:53;94950.53;;;25.15;21.94
38400;BME280;24180;42.676;23.320;2023-04-28T12:17:31;94945.38;;;25.78;21.74
38400;BME280;24180;42.676;23.320;2023-04-28T12:19:59;94945.75;;;26.33;21.54
38400;BME280;24180;42.676;23.320;2023-04-28T12:22:27;94917.59;;;27.77;20.68
38400;BME280;24180;42.676;23.320;2023-04-28T12:27:28;94911.44;;;26.43;21.02
38400;BME280;24180;42.676;23.320;2023-04-28T12:29:55;94925.03;;;22.91;23.53
38400;BME280;24180;42.676;23.320;2023-04-28T12:32:42;94932.44;;;20.16;26.81
38400;BME280;24180;42.676;23.320;2023-04-28T12:35:08;94923.81;;;18.63;28.54
38400;BME280;24180;42.676;23.320;2023-04-28T12:37:34;94901.63;;;17.87;28.89
38400;BME280;24180;42.676;23.320;2023-04-28T12:40:00;94932.00;;;17.38;31.08
38400;BME280;24180;42.676;23.320;2023-04-28T12:42:28;94883.72;;;17.11;31.13
38400;BME280;24180;42.676;23.320;2023-04-28T12:44:53;94916.22;;;17.16;30.56
38400;BME280;24180;42.676;23.320;2023-04-28T12:47:19;94924.59;;;16.74;31.25
38400;BME280;24180;42.676;23.320;2023-04-28T12:49:45;94905.69;;;16.27;32.72
38400;BME280;24180;42.676;23.320;2023-04-28T12:52:13;94906.53;;;16.42;32.42
38400;BME280;24180;42.676;23.320;2023-04-28T12:54:38;94906.59;;;16.34;32.21
38400;BME280;24180;42.676;23.320;2023-04-28T12:57:08;94906.19;;;16.45;32.86
38400;BME280;24180;42.676;23.320;2023-04-28T12:59:33;94825.03;;;16.01;32.63
38400;BME280;24180;42.676;23.320;2023-04-28T13:01:59;94887.25;;;16.43;32.35
38400;BME280;24180;42.676;23.320;2023-04-28T13:04:24;94883.72;;;16.59;33.85
38400;BME280;24180;42.676;23.320;2023-04-28T13:06:49;94866.25;;;16.36;33.04
38400;BME280;24180;42.676;23.320;2023-04-28T13:09:16;94888.09;;;16.44;33.59
38400;BME280;24180;42.676;23.320;2023-04-28T13:11:41;94858.59;;;16.35;33.00
38400;BME280;24180;42.676;23.320;2023-04-28T13:14:07;94856.56;;;16.22;33.41
38400;BME280;24180;42.676;23.320;2023-04-28T13:16:33;94886.16;;;16.37;34.02
38400;BME280;24180;42.676;23.320;2023-04-28T13:18:59;94860.41;;;16.12;34.15
38400;BME280;24180;42.676;23.320;2023-04-28T13:21:25;94893.53;;;16.34;33.91
38400;BME280;24180;42.676;23.320;2023-04-28T13:23:53;94863.63;;;16.14;33.70
38400;BME280;24180;42.676;23.320;2023-04-28T13:26:19;94880.00;;;16.30;33.61
38400;BME280;24180;42.676;23.320;2023-04-28T13:28:46;94863.56;;;16.22;33.65
38400;BME280;24180;42.676;23.320;2023-04-28T13:31:12;94886.41;;;16.28;33.75